sensor_id;sensor_type;location;lat;lon;timestamp;P1;durP1;ratioP1;P2;durP2;ratioP2
32108;SDS011;18624;50.042;8.436;2024-01-15T00:01:57;29.10;;;16.80;;
32108;SDS011;18624;50.042;8.436;2024-01-15T00:04:24;29.65;;;15.93;;
32108;SDS011;18624;50.042;8.436;2024-01-15T00:06:50;30.33;;;15.48;;
32108;SDS011;18624;50.042;8.436;2024-01-15T00:09:17;32.35;;;16.23;;
32108;SDS011;18624;50.042;8.436;2024-01-15T00:11:43;33.20;;;17.38;;
32108;SDS011;18624;50.042;8.436;2024-01-15T00:14:10;32.63;;;16.80;;
32108;SDS011;18624;50.042;8.436;2024-01-15T00:16:37;29.08;;;16.27;;
32108;SDS011;18624;50.042;8.436;2024-01-15T00:19:03;31.60;;;17.52;;
32108;SDS011;18624;50.042;8.436;2024-01-15T00:21:30;35.35;;;16.67;;
32108;SDS011;18624;50.042;8.436;2024-01-15T00:23:56;27.70;;;15.93;;
32108;SDS011;18624;50.042;8.436;2024-01-15T00:26:23;31.17;;;16.25;;
32108;SDS011;18624;50.042;8.436;2024-01-15T00:28:50;31.05;;;16.23;;
32108;SDS011;18624;50.042;8.436;2024-01-15T00:31:16;29.95;;;16.13;;
32108;SDS011;18624;50.042;8.436;2024-01-15T00:33:44;34.35;;;16.90;;
32108;SDS011;18624;50.042;8.436;2024-01-15T00:36:10;32.42;;;16.48;;
32108;SDS011;18624;50.042;8.436;2024-01-15T00:38:37;34.63;;;16.58;;
32108;SDS011;18624;50.042;8.436;2024-01-15T00:41:04;33.40;;;16.52;;
32108;SDS011;18624;50.042;8.436;2024-01-15T00:43:30;32.40;;;17.65;;
32108;SDS011;18624;50.042;8.436;2024-01-15T00:45:57;32.10;;;18.17;;
32108;SDS011;18624;50.042;8.436;2024-01-15T00:48:23;36.58;;;17.13;;
32108;SDS011;18624;50.042;8.436;2024-01-15T00:50:50;32.47;;;17.77;;
32108;SDS011;18624;50.042;8.436;2024-01-15T00:53:17;41.60;;;19.75;;
32108;SDS011;18624;50.042;8.436;2024-01-15T00:55:44;37.75;;;18.38;;
32108;SDS011;18624;50.042;8.436;2024-01-15T00:58:10;33.00;;;17.13;;
32108;SDS011;18624;50.042;8.436;2024-01-15T01:00:37;32.05;;;16.05;;
32108;SDS011;18624;50.042;8.436;2024-01-15T01:03:03;32.80;;;18.52;;
32108;SDS011;18624;50.042;8.436;2024-01-15T01:05:30;35.10;;;18.33;;
32108;SDS011;18624;50.042;8.436;2024-01-15T01:07:56;37.80;;;19.00;;
32108;SDS011;18624;50.042;8.436;2024-01-15T01:10:23;32.42;;;18.15;;
32108;SDS011;18624;50.042;8.436;2024-01-15T01:12:49;41.88;;;18.63;;
32108;SDS011;18624;50.042;8.436;2024-01-15T01:15:16;32.35;;;17.00;;
32108;SDS011;18624;50.042;8.436;2024-01-15T01:17:43;31.60;;;17.67;;
32108;SDS011;18624;50.042;8.436;2024-01-15T01:20:09;37.63;;;17.10;;
32108;SDS011;18624;50.042;8.436;2024-01-15T01:22:37;33.92;;;19.08;;
32108;SDS011;18624;50.042;8.436;2024-01-15T01:25:04;35.03;;;18.13;;
32108;SDS011;18624;50.042;8.436;2024-01-15T01:27:31;32.25;;;16.92;;
32108;SDS011;18624;50.042;8.436;2024-01-15T01:29:57;33.70;;;17.63;;
32108;SDS011;18624;50.042;8.436;2024-01-15T01:32:24;32.92;;;17.52;;
32108;SDS011;18624;50.042;8.436;2024-01-15T01:34:51;33.92;;;16.92;;
32108;SDS011;18624;50.042;8.436;2024-01-15T01:37:17;36.63;;;18.42;;
32108;SDS011;18624;50.042;8.436;2024-01-15T01:39:44;35.35;;;17.83;;
32108;SDS011;18624;50.042;8.436;2024-01-15T01:42:11;35.00;;;17.52;;
32108;SDS011;18624;50.042;8.436;2024-01-15T01:44:38;33.75;;;17.20;;
32108;SDS011;18624;50.042;8.436;2024-01-15T01:47:05;36.00;;;18.60;;
32108;SDS011;18624;50.042;8.436;2024-01-15T01:49:31;34.92;;;18.08;;
32108;SDS011;18624;50.042;8.436;2024-01-15T01:52:02;33.95;;;17.15;;
32108;SDS011;18624;50.042;8.436;2024-01-15T01:54:31;37.10;;;18.63;;
32108;SDS011;18624;50.042;8.436;2024-01-15T01:56:58;35.45;;;17.90;;
32108;SDS011;18624;50.042;8.436;2024-01-15T01:59:25;30.58;;;16.83;;
32108;SDS011;18624;50.042;8.436;2024-01-15T02:01:54;33.00;;;16.10;;
32108;SDS011;18624;50.042;8.436;2024-01-15T02:04:22;32.90;;;15.95;;
32108;SDS011;18624;50.042;8.436;2024-01-15T02:06:50;33.08;;;16.83;;
32108;SDS011;18624;50.042;8.436;2024-01-15T02:09:17;34.92;;;17.23;;
32108;SDS011;18624;50.042;8.436;2024-01-15T02:11:48;33.55;;;17.95;;
32108;SDS011;18624;50.042;8.436;2024-01-15T02:14:14;31.65;;;15.27;;
32108;SDS011;18624;50.042;8.436;2024-01-15T02:16:42;38.67;;;18.83;;
32108;SDS011;18624;50.042;8.436;2024-01-15T02:19:14;33.88;;;17.55;;
32108;SDS011;18624;50.042;8.436;2024-01-15T02:21:43;39.65;;;18.52;;
32108;SDS011;18624;50.042;8.436;2024-01-15T02:24:10;39.75;;;18.23;;
32108;SDS011;18624;50.042;8.436;2024-01-15T02:26:37;36.03;;;17.48;;
32108;SDS011;18624;50.042;8.436;2024-01-15T02:29:07;36.10;;;17.35;;
32108;SDS011;18624;50.042;8.436;2024-01-15T02:31:37;38.25;;;18.10;;
32108;SDS011;18624;50.042;8.436;2024-01-15T02:34:04;29.83;;;17.27;;
32108;SDS011;18624;50.042;8.436;2024-01-15T02:36:31;35.25;;;16.55;;
32108;SDS011;18624;50.042;8.436;2024-01-15T02:38:58;33.55;;;17.40;;
32108;SDS011;18624;50.042;8.436;2024-01-15T02:41:24;30.83;;;15.13;;
32108;SDS011;18624;50.042;8.436;2024-01-15T02:43:51;32.35;;;17.65;;
32108;SDS011;18624;50.042;8.436;2024-01-15T02:46:17;30.63;;;17.05;;
32108;SDS011;18624;50.042;8.436;2024-01-15T02:48:44;36.25;;;17.02;;
32108;SDS011;18624;50.042;8.436;2024-01-15T02:51:11;32.65;;;16.95;;
32108;SDS011;18624;50.042;8.436;2024-01-15T02:53:38;31.00;;;16.33;;
32108;SDS011;18624;50.042;8.436;2024-01-15T02:56:06;30.58;;;15.48;;
32108;SDS011;18624;50.042;8.436;2024-01-15T02:58:33;32.30;;;17.95;;
32108;SDS011;18624;50.042;8.436;2024-01-15T03:01:00;32.75;;;15.60;;
32108;SDS011;18624;50.042;8.436;2024-01-15T03:03:26;38.20;;;19.55;;
32108;SDS011;18624;50.042;8.436;2024-01-15T03:05:53;27.20;;;14.70;;
32108;SDS011;18624;50.042;8.436;2024-01-15T03:08:20;27.92;;;15.55;;
32108;SDS011;18624;50.042;8.436;2024-01-15T03:10:46;29.48;;;15.55;;
32108;SDS011;18624;50.042;8.436;2024-01-15T03:13:13;30.90;;;16.30;;
32108;SDS011;18624;50.042;8.436;2024-01-15T03:15:39;31.48;;;15.65;;
32108;SDS011;18624;50.042;8.436;2024-01-15T03:18:06;24.02;;;14.05;;
32108;SDS011;18624;50.042;8.436;2024-01-15T03:20:32;28.73;;;15.77;;
32108;SDS011;18624;50.042;8.436;2024-01-15T03:22:59;29.88;;;15.23;;
32108;SDS011;18624;50.042;8.436;2024-01-15T03:25:25;35.42;;;17.00;;
32108;SDS011;18624;50.042;8.436;2024-01-15T03:27:52;32.08;;;15.32;;
32108;SDS011;18624;50.042;8.436;2024-01-15T03:30:18;27.25;;;14.55;;
32108;SDS011;18624;50.042;8.436;2024-01-15T03:32:45;29.08;;;14.50;;
32108;SDS011;18624;50.042;8.436;2024-01-15T03:35:13;29.15;;;14.85;;
32108;SDS011;18624;50.042;8.436;2024-01-15T03:37:40;29.15;;;14.73;;
32108;SDS011;18624;50.042;8.436;2024-01-15T03:40:07;29.42;;;14.95;;
32108;SDS011;18624;50.042;8.436;2024-01-15T03:42:34;27.17;;;15.05;;
32108;SDS011;18624;50.042;8.436;2024-01-15T03:45:00;29.92;;;14.90;;
32108;SDS011;18624;50.042;8.436;2024-01-15T03:47:27;34.88;;;19.27;;
32108;SDS011;18624;50.042;8.436;2024-01-15T03:49:53;32.47;;;18.10;;
32108;SDS011;18624;50.042;8.436;2024-01-15T03:52:20;28.67;;;14.88;;
32108;SDS011;18624;50.042;8.436;2024-01-15T03:54:46;28.70;;;14.57;;
32108;SDS011;18624;50.042;8.436;2024-01-15T03:57:13;25.63;;;13.82;;
32108;SDS011;18624;50.042;8.436;2024-01-15T03:59:40;27.00;;;13.80;;
32108;SDS011;18624;50.042;8.436;2024-01-15T04:02:07;28.83;;;14.80;;
32108;SDS011;18624;50.042;8.436;2024-01-15T04:04:34;28.77;;;15.70;;
32108;SDS011;18624;50.042;8.436;2024-01-15T04:07:01;25.45;;;14.27;;
32108;SDS011;18624;50.042;8.436;2024-01-15T04:09:27;32.22;;;15.05;;
32108;SDS011;18624;50.042;8.436;2024-01-15T04:11:54;29.13;;;14.93;;
32108;SDS011;18624;50.042;8.436;2024-01-15T04:14:20;25.90;;;14.32;;
32108;SDS011;18624;50.042;8.436;2024-01-15T04:16:47;26.83;;;14.05;;
32108;SDS011;18624;50.042;8.436;2024-01-15T04:19:13;23.55;;;12.95;;
32108;SDS011;18624;50.042;8.436;2024-01-15T04:21:40;26.60;;;13.57;;
32108;SDS011;18624;50.042;8.436;2024-01-15T04:24:07;24.42;;;13.70;;
32108;SDS011;18624;50.042;8.436;2024-01-15T04:26:34;28.52;;;14.32;;
32108;SDS011;18624;50.042;8.436;2024-01-15T04:29:00;28.55;;;16.55;;
32108;SDS011;18624;50.042;8.436;2024-01-15T04:31:27;24.95;;;13.27;;
32108;SDS011;18624;50.042;8.436;2024-01-15T04:33:54;26.63;;;13.85;;
32108;SDS011;18624;50.042;8.436;2024-01-15T04:36:21;29.55;;;14.68;;
32108;SDS011;18624;50.042;8.436;2024-01-15T04:38:48;26.33;;;14.15;;
32108;SDS011;18624;50.042;8.436;2024-01-15T04:41:15;33.88;;;15.57;;
32108;SDS011;18624;50.042;8.436;2024-01-15T04:43:42;26.27;;;14.48;;
32108;SDS011;18624;50.042;8.436;2024-01-15T04:46:09;26.05;;;14.75;;
32108;SDS011;18624;50.042;8.436;2024-01-15T04:48:36;27.70;;;13.77;;
32108;SDS011;18624;50.042;8.436;2024-01-15T04:51:05;30.88;;;15.07;;
32108;SDS011;18624;50.042;8.436;2024-01-15T04:53:34;26.05;;;13.52;;
32108;SDS011;18624;50.042;8.436;2024-01-15T04:56:01;28.27;;;14.23;;
32108;SDS011;18624;50.042;8.436;2024-01-15T04:58:27;31.40;;;15.73;;
32108;SDS011;18624;50.042;8.436;2024-01-15T05:00:54;27.90;;;14.85;;
32108;SDS011;18624;50.042;8.436;2024-01-15T05:03:21;31.17;;;14.68;;
32108;SDS011;18624;50.042;8.436;2024-01-15T05:05:47;28.67;;;14.55;;
32108;SDS011;18624;50.042;8.436;2024-01-15T05:08:14;28.85;;;15.68;;
32108;SDS011;18624;50.042;8.436;2024-01-15T05:10:41;25.52;;;13.63;;
32108;SDS011;18624;50.042;8.436;2024-01-15T05:13:07;26.77;;;14.02;;
32108;SDS011;18624;50.042;8.436;2024-01-15T05:15:33;24.35;;;13.90;;
32108;SDS011;18624;50.042;8.436;2024-01-15T05:18:00;29.27;;;14.80;;
32108;SDS011;18624;50.042;8.436;2024-01-15T05:20:27;27.88;;;14.10;;
32108;SDS011;18624;50.042;8.436;2024-01-15T05:22:53;27.90;;;14.55;;
32108;SDS011;18624;50.042;8.436;2024-01-15T05:25:20;26.42;;;14.00;;
32108;SDS011;18624;50.042;8.436;2024-01-15T05:27:46;28.65;;;14.32;;
32108;SDS011;18624;50.042;8.436;2024-01-15T05:30:13;27.75;;;14.80;;
32108;SDS011;18624;50.042;8.436;2024-01-15T05:32:40;25.98;;;14.30;;
32108;SDS011;18624;50.042;8.436;2024-01-15T05:35:06;26.70;;;14.20;;
32108;SDS011;18624;50.042;8.436;2024-01-15T05:37:33;27.20;;;15.20;;
32108;SDS011;18624;50.042;8.436;2024-01-15T05:40:00;30.67;;;15.13;;
32108;SDS011;18624;50.042;8.436;2024-01-15T05:42:26;33.40;;;16.08;;
32108;SDS011;18624;50.042;8.436;2024-01-15T05:44:56;26.05;;;15.15;;
32108;SDS011;18624;50.042;8.436;2024-01-15T05:47:22;29.52;;;16.35;;
32108;SDS011;18624;50.042;8.436;2024-01-15T05:49:49;32.58;;;16.02;;
32108;SDS011;18624;50.042;8.436;2024-01-15T05:52:16;35.88;;;21.30;;
32108;SDS011;18624;50.042;8.436;2024-01-15T05:54:43;29.90;;;18.48;;
32108;SDS011;18624;50.042;8.436;2024-01-15T05:57:09;29.17;;;15.35;;
32108;SDS011;18624;50.042;8.436;2024-01-15T05:59:36;25.15;;;14.23;;
32108;SDS011;18624;50.042;8.436;2024-01-15T06:02:02;28.05;;;16.95;;
32108;SDS011;18624;50.042;8.436;2024-01-15T06:04:29;30.33;;;15.75;;
32108;SDS011;18624;50.042;8.436;2024-01-15T06:06:56;29.58;;;14.98;;
32108;SDS011;18624;50.042;8.436;2024-01-15T06:09:22;32.47;;;15.48;;
32108;SDS011;18624;50.042;8.436;2024-01-15T06:11:49;27.80;;;15.82;;
32108;SDS011;18624;50.042;8.436;2024-01-15T06:14:15;28.23;;;14.93;;
32108;SDS011;18624;50.042;8.436;2024-01-15T06:16:42;28.83;;;14.82;;
32108;SDS011;18624;50.042;8.436;2024-01-15T06:19:08;30.42;;;16.25;;
32108;SDS011;18624;50.042;8.436;2024-01-15T06:21:35;28.95;;;14.90;;
32108;SDS011;18624;50.042;8.436;2024-01-15T06:24:02;30.50;;;16.15;;
32108;SDS011;18624;50.042;8.436;2024-01-15T06:26:28;30.00;;;15.00;;
32108;SDS011;18624;50.042;8.436;2024-01-15T06:28:55;27.73;;;15.00;;
32108;SDS011;18624;50.042;8.436;2024-01-15T06:31:21;29.85;;;15.65;;
32108;SDS011;18624;50.042;8.436;2024-01-15T06:33:48;29.27;;;17.33;;
32108;SDS011;18624;50.042;8.436;2024-01-15T06:36:15;30.25;;;15.25;;
32108;SDS011;18624;50.042;8.436;2024-01-15T06:38:43;31.63;;;15.98;;
32108;SDS011;18624;50.042;8.436;2024-01-15T06:41:10;30.35;;;16.17;;
32108;SDS011;18624;50.042;8.436;2024-01-15T06:43:36;28.35;;;14.75;;
32108;SDS011;18624;50.042;8.436;2024-01-15T06:46:03;31.98;;;15.93;;
32108;SDS011;18624;50.042;8.436;2024-01-15T06:48:33;34.80;;;16.80;;
32108;SDS011;18624;50.042;8.436;2024-01-15T06:51:00;29.05;;;15.45;;
32108;SDS011;18624;50.042;8.436;2024-01-15T06:53:27;26.05;;;14.90;;
32108;SDS011;18624;50.042;8.436;2024-01-15T06:55:53;30.67;;;15.65;;
32108;SDS011;18624;50.042;8.436;2024-01-15T06:58:20;32.13;;;15.52;;
32108;SDS011;18624;50.042;8.436;2024-01-15T07:00:46;29.98;;;16.38;;
32108;SDS011;18624;50.042;8.436;2024-01-15T07:03:13;28.25;;;14.60;;
32108;SDS011;18624;50.042;8.436;2024-01-15T07:05:40;30.15;;;15.48;;
32108;SDS011;18624;50.042;8.436;2024-01-15T07:08:06;28.67;;;15.10;;
32108;SDS011;18624;50.042;8.436;2024-01-15T07:10:33;27.38;;;14.80;;
32108;SDS011;18624;50.042;8.436;2024-01-15T07:13:02;27.65;;;15.68;;
32108;SDS011;18624;50.042;8.436;2024-01-15T07:15:29;31.35;;;14.85;;
32108;SDS011;18624;50.042;8.436;2024-01-15T07:17:55;27.92;;;16.17;;
32108;SDS011;18624;50.042;8.436;2024-01-15T07:20:22;25.75;;;14.73;;
32108;SDS011;18624;50.042;8.436;2024-01-15T07:22:49;30.88;;;15.70;;
32108;SDS011;18624;50.042;8.436;2024-01-15T07:25:15;27.67;;;14.32;;
32108;SDS011;18624;50.042;8.436;2024-01-15T07:27:42;28.08;;;14.38;;
32108;SDS011;18624;50.042;8.436;2024-01-15T07:30:11;25.33;;;12.95;;
32108;SDS011;18624;50.042;8.436;2024-01-15T07:32:38;31.30;;;14.98;;
32108;SDS011;18624;50.042;8.436;2024-01-15T07:35:05;31.45;;;14.50;;
32108;SDS011;18624;50.042;8.436;2024-01-15T07:37:32;25.25;;;14.32;;
32108;SDS011;18624;50.042;8.436;2024-01-15T07:39:59;28.02;;;14.05;;
32108;SDS011;18624;50.042;8.436;2024-01-15T07:42:27;28.08;;;14.45;;
32108;SDS011;18624;50.042;8.436;2024-01-15T07:44:53;30.20;;;15.52;;
32108;SDS011;18624;50.042;8.436;2024-01-15T07:47:20;28.23;;;15.55;;
32108;SDS011;18624;50.042;8.436;2024-01-15T07:49:46;28.08;;;15.90;;
32108;SDS011;18624;50.042;8.436;2024-01-15T07:52:13;27.25;;;14.10;;
32108;SDS011;18624;50.042;8.436;2024-01-15T07:54:40;30.10;;;15.75;;
32108;SDS011;18624;50.042;8.436;2024-01-15T07:57:07;26.73;;;15.43;;
32108;SDS011;18624;50.042;8.436;2024-01-15T07:59:34;27.02;;;14.55;;
32108;SDS011;18624;50.042;8.436;2024-01-15T08:02:01;27.90;;;15.80;;
32108;SDS011;18624;50.042;8.436;2024-01-15T08:04:28;27.27;;;15.30;;
32108;SDS011;18624;50.042;8.436;2024-01-15T08:06:55;27.60;;;15.55;;
32108;SDS011;18624;50.042;8.436;2024-01-15T08:09:23;30.20;;;16.05;;
32108;SDS011;18624;50.042;8.436;2024-01-15T08:11:49;31.63;;;16.73;;
32108;SDS011;18624;50.042;8.436;2024-01-15T08:14:17;29.05;;;15.20;;
32108;SDS011;18624;50.042;8.436;2024-01-15T08:16:44;25.85;;;13.82;;
32108;SDS011;18624;50.042;8.436;2024-01-15T08:19:10;27.65;;;16.17;;
32108;SDS011;18624;50.042;8.436;2024-01-15T08:21:37;29.42;;;16.08;;
32108;SDS011;18624;50.042;8.436;2024-01-15T08:24:04;27.90;;;15.95;;
32108;SDS011;18624;50.042;8.436;2024-01-15T08:26:31;32.78;;;16.05;;
32108;SDS011;18624;50.042;8.436;2024-01-15T08:29:00;27.65;;;15.23;;
32108;SDS011;18624;50.042;8.436;2024-01-15T08:31:27;28.95;;;15.40;;
32108;SDS011;18624;50.042;8.436;2024-01-15T08:33:54;25.85;;;14.57;;
32108;SDS011;18624;50.042;8.436;2024-01-15T08:36:21;32.55;;;15.38;;
32108;SDS011;18624;50.042;8.436;2024-01-15T08:38:48;30.30;;;17.23;;
32108;SDS011;18624;50.042;8.436;2024-01-15T08:41:14;30.00;;;17.23;;
32108;SDS011;18624;50.042;8.436;2024-01-15T08:43:41;30.48;;;16.33;;
32108;SDS011;18624;50.042;8.436;2024-01-15T08:46:08;31.60;;;16.23;;
32108;SDS011;18624;50.042;8.436;2024-01-15T08:48:34;28.55;;;16.23;;
32108;SDS011;18624;50.042;8.436;2024-01-15T08:51:01;28.38;;;16.83;;
32108;SDS011;18624;50.042;8.436;2024-01-15T08:53:28;30.55;;;15.75;;
32108;SDS011;18624;50.042;8.436;2024-01-15T08:55:54;28.70;;;15.93;;
32108;SDS011;18624;50.042;8.436;2024-01-15T08:58:22;32.92;;;16.88;;
32108;SDS011;18624;50.042;8.436;2024-01-15T09:00:49;32.30;;;18.13;;
32108;SDS011;18624;50.042;8.436;2024-01-15T09:03:17;29.20;;;15.50;;
32108;SDS011;18624;50.042;8.436;2024-01-15T09:05:44;28.92;;;14.90;;
32108;SDS011;18624;50.042;8.436;2024-01-15T09:08:11;27.17;;;17.23;;
32108;SDS011;18624;50.042;8.436;2024-01-15T09:10:38;29.67;;;15.77;;
32108;SDS011;18624;50.042;8.436;2024-01-15T09:13:04;27.20;;;15.38;;
32108;SDS011;18624;50.042;8.436;2024-01-15T09:15:31;31.42;;;17.02;;
32108;SDS011;18624;50.042;8.436;2024-01-15T09:17:57;29.40;;;15.52;;
32108;SDS011;18624;50.042;8.436;2024-01-15T09:20:25;27.35;;;15.82;;
32108;SDS011;18624;50.042;8.436;2024-01-15T09:22:53;26.38;;;15.52;;
32108;SDS011;18624;50.042;8.436;2024-01-15T09:25:20;29.55;;;17.55;;
32108;SDS011;18624;50.042;8.436;2024-01-15T09:27:46;28.13;;;16.30;;
32108;SDS011;18624;50.042;8.436;2024-01-15T09:30:13;27.17;;;15.20;;
32108;SDS011;18624;50.042;8.436;2024-01-15T09:32:40;25.08;;;13.82;;
32108;SDS011;18624;50.042;8.436;2024-01-15T09:35:07;25.45;;;14.60;;
32108;SDS011;18624;50.042;8.436;2024-01-15T09:37:34;47.55;;;23.92;;
32108;SDS011;18624;50.042;8.436;2024-01-15T09:40:13;29.10;;;15.20;;
32108;SDS011;18624;50.042;8.436;2024-01-15T09:42:43;25.20;;;13.77;;
32108;SDS011;18624;50.042;8.436;2024-01-15T09:45:11;28.60;;;15.27;;
32108;SDS011;18624;50.042;8.436;2024-01-15T09:47:38;22.20;;;13.75;;
32108;SDS011;18624;50.042;8.436;2024-01-15T09:50:11;23.92;;;14.95;;
32108;SDS011;18624;50.042;8.436;2024-01-15T09:52:39;26.88;;;15.55;;
32108;SDS011;18624;50.042;8.436;2024-01-15T09:55:07;26.55;;;15.07;;
32108;SDS011;18624;50.042;8.436;2024-01-15T09:57:36;24.55;;;15.02;;
32108;SDS011;18624;50.042;8.436;2024-01-15T10:00:03;30.08;;;16.17;;
32108;SDS011;18624;50.042;8.436;2024-01-15T10:02:31;28.80;;;15.82;;
32108;SDS011;18624;50.042;8.436;2024-01-15T10:04:59;27.38;;;14.80;;
32108;SDS011;18624;50.042;8.436;2024-01-15T10:07:26;29.45;;;15.55;;
32108;SDS011;18624;50.042;8.436;2024-01-15T10:09:54;27.40;;;15.85;;
32108;SDS011;18624;50.042;8.436;2024-01-15T10:12:21;26.35;;;14.63;;
32108;SDS011;18624;50.042;8.436;2024-01-15T10:14:50;26.50;;;15.13;;
32108;SDS011;18624;50.042;8.436;2024-01-15T10:17:17;28.45;;;14.43;;
32108;SDS011;18624;50.042;8.436;2024-01-15T10:19:46;24.77;;;14.07;;
32108;SDS011;18624;50.042;8.436;2024-01-15T10:22:16;19.05;;;11.38;;
32108;SDS011;18624;50.042;8.436;2024-01-15T10:24:44;26.90;;;14.48;;
32108;SDS011;18624;50.042;8.436;2024-01-15T10:27:12;26.67;;;14.07;;
32108;SDS011;18624;50.042;8.436;2024-01-15T10:29:40;27.15;;;16.20;;
32108;SDS011;18624;50.042;8.436;2024-01-15T10:32:08;28.52;;;15.35;;
32108;SDS011;18624;50.042;8.436;2024-01-15T10:34:38;22.77;;;13.23;;
32108;SDS011;18624;50.042;8.436;2024-01-15T10:37:10;24.92;;;15.32;;
32108;SDS011;18624;50.042;8.436;2024-01-15T10:39:36;24.27;;;13.73;;
32108;SDS011;18624;50.042;8.436;2024-01-15T10:42:04;22.00;;;13.82;;
32108;SDS011;18624;50.042;8.436;2024-01-15T10:44:32;25.05;;;14.35;;
32108;SDS011;18624;50.042;8.436;2024-01-15T10:46:59;24.17;;;13.27;;
32108;SDS011;18624;50.042;8.436;2024-01-15T10:49:25;22.98;;;13.95;;
32108;SDS011;18624;50.042;8.436;2024-01-15T10:51:58;22.92;;;14.80;;
32108;SDS011;18624;50.042;8.436;2024-01-15T10:54:28;23.42;;;13.95;;
32108;SDS011;18624;50.042;8.436;2024-01-15T10:56:56;26.17;;;15.10;;
32108;SDS011;18624;50.042;8.436;2024-01-15T10:59:23;25.92;;;14.88;;
32108;SDS011;18624;50.042;8.436;2024-01-15T11:01:50;22.55;;;14.07;;
32108;SDS011;18624;50.042;8.436;2024-01-15T11:04:21;23.20;;;13.90;;
32108;SDS011;18624;50.042;8.436;2024-01-15T11:06:53;26.77;;;14.77;;
32108;SDS011;18624;50.042;8.436;2024-01-15T11:09:22;24.10;;;14.70;;
32108;SDS011;18624;50.042;8.436;2024-01-15T11:11:51;29.23;;;15.27;;
32108;SDS011;18624;50.042;8.436;2024-01-15T11:17:06;24.80;;;15.40;;
32108;SDS011;18624;50.042;8.436;2024-01-15T11:25:14;23.77;;;14.23;;
32108;SDS011;18624;50.042;8.436;2024-01-15T11:27:51;25.30;;;15.90;;
32108;SDS011;18624;50.042;8.436;2024-01-15T11:30:20;21.80;;;13.32;;
32108;SDS011;18624;50.042;8.436;2024-01-15T11:32:52;26.07;;;15.30;;
32108;SDS011;18624;50.042;8.436;2024-01-15T11:35:18;22.10;;;14.18;;
32108;SDS011;18624;50.042;8.436;2024-01-15T11:40:22;22.63;;;14.18;;
32108;SDS011;18624;50.042;8.436;2024-01-15T11:42:59;23.38;;;14.73;;
32108;SDS011;18624;50.042;8.436;2024-01-15T11:45:25;22.38;;;13.35;;
32108;SDS011;18624;50.042;8.436;2024-01-15T11:50:47;23.20;;;13.68;;
32108;SDS011;18624;50.042;8.436;2024-01-15T11:55:53;22.00;;;12.77;;
32108;SDS011;18624;50.042;8.436;2024-01-15T11:58:24;19.75;;;11.95;;
32108;SDS011;18624;50.042;8.436;2024-01-15T12:00:52;21.98;;;14.50;;
32108;SDS011;18624;50.042;8.436;2024-01-15T12:03:23;24.20;;;13.48;;
32108;SDS011;18624;50.042;8.436;2024-01-15T12:05:54;21.05;;;12.00;;
32108;SDS011;18624;50.042;8.436;2024-01-15T12:08:22;21.05;;;12.20;;
32108;SDS011;18624;50.042;8.436;2024-01-15T12:10:50;21.75;;;13.43;;
32108;SDS011;18624;50.042;8.436;2024-01-15T12:13:17;20.40;;;12.00;;
32108;SDS011;18624;50.042;8.436;2024-01-15T12:15:45;20.38;;;13.38;;
32108;SDS011;18624;50.042;8.436;2024-01-15T12:18:13;22.38;;;13.80;;
32108;SDS011;18624;50.042;8.436;2024-01-15T12:20:42;19.38;;;12.23;;
32108;SDS011;18624;50.042;8.436;2024-01-15T12:23:09;19.65;;;12.98;;
32108;SDS011;18624;50.042;8.436;2024-01-15T12:25:37;21.27;;;13.48;;
32108;SDS011;18624;50.042;8.436;2024-01-15T12:28:04;24.60;;;14.10;;
32108;SDS011;18624;50.042;8.436;2024-01-15T12:30:32;21.33;;;13.38;;
32108;SDS011;18624;50.042;8.436;2024-01-15T12:33:03;18.10;;;11.57;;
32108;SDS011;18624;50.042;8.436;2024-01-15T12:35:30;24.48;;;14.63;;
32108;SDS011;18624;50.042;8.436;2024-01-15T12:37:59;20.85;;;13.52;;
32108;SDS011;18624;50.042;8.436;2024-01-15T12:40:26;24.00;;;13.93;;
32108;SDS011;18624;50.042;8.436;2024-01-15T12:42:53;18.15;;;12.15;;
32108;SDS011;18624;50.042;8.436;2024-01-15T12:45:19;18.60;;;10.98;;
32108;SDS011;18624;50.042;8.436;2024-01-15T12:47:46;19.98;;;11.85;;
32108;SDS011;18624;50.042;8.436;2024-01-15T12:50:13;17.65;;;10.70;;
32108;SDS011;18624;50.042;8.436;2024-01-15T12:52:46;19.73;;;11.45;;
32108;SDS011;18624;50.042;8.436;2024-01-15T12:55:13;23.08;;;13.18;;
32108;SDS011;18624;50.042;8.436;2024-01-15T12:57:40;21.48;;;11.75;;
32108;SDS011;18624;50.042;8.436;2024-01-15T13:00:06;19.30;;;12.43;;
32108;SDS011;18624;50.042;8.436;2024-01-15T13:02:40;23.40;;;12.82;;
32108;SDS011;18624;50.042;8.436;2024-01-15T13:05:08;21.90;;;12.60;;
32108;SDS011;18624;50.042;8.436;2024-01-15T13:07:37;15.80;;;10.30;;
32108;SDS011;18624;50.042;8.436;2024-01-15T13:10:05;20.65;;;12.07;;
32108;SDS011;18624;50.042;8.436;2024-01-15T13:12:33;21.30;;;10.32;;
32108;SDS011;18624;50.042;8.436;2024-01-15T13:15:00;20.80;;;12.30;;
32108;SDS011;18624;50.042;8.436;2024-01-15T13:17:29;19.40;;;11.10;;
32108;SDS011;18624;50.042;8.436;2024-01-15T13:19:56;19.13;;;10.32;;
32108;SDS011;18624;50.042;8.436;2024-01-15T13:22:22;22.85;;;11.82;;
32108;SDS011;18624;50.042;8.436;2024-01-15T13:24:51;17.55;;;11.05;;
32108;SDS011;18624;50.042;8.436;2024-01-15T13:27:17;16.40;;;10.27;;
32108;SDS011;18624;50.042;8.436;2024-01-15T13:29:44;20.80;;;12.68;;
32108;SDS011;18624;50.042;8.436;2024-01-15T13:32:11;17.60;;;10.38;;
32108;SDS011;18624;50.042;8.436;2024-01-15T13:34:43;17.02;;;10.55;;
32108;SDS011;18624;50.042;8.436;2024-01-15T13:37:10;18.23;;;11.05;;
32108;SDS011;18624;50.042;8.436;2024-01-15T13:39:38;17.77;;;11.13;;
32108;SDS011;18624;50.042;8.436;2024-01-15T13:42:04;18.25;;;11.20;;
32108;SDS011;18624;50.042;8.436;2024-01-15T13:44:31;19.02;;;11.30;;
32108;SDS011;18624;50.042;8.436;2024-01-15T13:46:57;18.63;;;11.85;;
32108;SDS011;18624;50.042;8.436;2024-01-15T13:49:24;17.10;;;10.18;;
32108;SDS011;18624;50.042;8.436;2024-01-15T13:51:51;19.02;;;11.48;;
32108;SDS011;18624;50.042;8.436;2024-01-15T13:54:18;19.30;;;11.68;;
32108;SDS011;18624;50.042;8.436;2024-01-15T13:56:49;19.25;;;11.18;;
32108;SDS011;18624;50.042;8.436;2024-01-15T13:59:21;17.73;;;10.85;;
32108;SDS011;18624;50.042;8.436;2024-01-15T14:01:49;18.55;;;10.85;;
32108;SDS011;18624;50.042;8.436;2024-01-15T14:04:15;15.73;;;10.55;;
32108;SDS011;18624;50.042;8.436;2024-01-15T14:06:42;16.90;;;9.93;;
32108;SDS011;18624;50.042;8.436;2024-01-15T14:09:08;17.23;;;11.43;;
32108;SDS011;18624;50.042;8.436;2024-01-15T14:11:36;17.50;;;11.02;;
32108;SDS011;18624;50.042;8.436;2024-01-15T14:14:03;19.30;;;10.90;;
32108;SDS011;18624;50.042;8.436;2024-01-15T14:16:30;21.95;;;11.18;;
32108;SDS011;18624;50.042;8.436;2024-01-15T14:18:57;18.55;;;10.60;;
32108;SDS011;18624;50.042;8.436;2024-01-15T14:21:23;18.27;;;9.85;;
32108;SDS011;18624;50.042;8.436;2024-01-15T14:23:50;15.88;;;9.65;;
32108;SDS011;18624;50.042;8.436;2024-01-15T14:26:16;16.13;;;10.05;;
32108;SDS011;18624;50.042;8.436;2024-01-15T14:28:43;17.10;;;9.50;;
32108;SDS011;18624;50.042;8.436;2024-01-15T14:31:09;19.08;;;11.13;;
32108;SDS011;18624;50.042;8.436;2024-01-15T14:33:36;17.08;;;9.98;;
32108;SDS011;18624;50.042;8.436;2024-01-15T14:36:05;20.10;;;10.40;;
32108;SDS011;18624;50.042;8.436;2024-01-15T14:38:32;19.42;;;10.27;;